Time;durP1;ratioP1;P1;durP2;ratioP2;P2;SDS_P1;SDS_P2;PMS_P1;PMS_P2;Temp;Humidity;BMP_temperature;BMP_pressure;BME280_temperature;BME280_humidity;BME280_pressure;Samples;Min_cycle;Max_cycle;Signal;HPM_P1;HPM_P2
2023/02/09 00:02:04;;;;;;;47.22;28.02;;;-3.30;68.00;;;;;;4977806;28;20026;-74
2023/02/09 00:04:30;;;;;;;53.15;29.25;;;-3.30;68.20;;;;;;4995178;28;20038;-74
2023/02/09 00:06:56;;;;;;;50.25;28.33;;;-3.40;68.30;;;;;;4995275;28;20045;-74
2023/02/09 00:09:21;;;;;;;51.50;29.30;;;-3.40;68.60;;;;;;4977597;28;20471;-74
2023/02/09 00:14:33;;;;;;;52.88;31.55;;;-3.60;68.80;;;;;;4994829;28;20030;-75
2023/02/09 00:17:01;;;;;;;52.40;31.45;;;-3.60;69.40;;;;;;4994865;28;20033;-74
2023/02/09 00:19:27;;;;;;;54.67;31.77;;;-3.70;69.60;;;;;;4995052;28;20065;-75
2023/02/09 00:21:52;;;;;;;49.47;31.02;;;-3.70;69.60;;;;;;4994981;28;20026;-74
2023/02/09 00:24:18;;;;;;;54.28;30.58;;;-3.70;69.70;;;;;;4994754;28;20471;-74
2023/02/09 00:26:44;;;;;;;47.80;30.30;;;-3.70;69.70;;;;;;4994599;28;20068;-73
2023/02/09 00:29:10;;;;;;;51.50;30.30;;;-3.80;69.70;;;;;;4994594;28;20037;-75
2023/02/09 00:31:36;;;;;;;52.17;30.52;;;-3.80;69.90;;;;;;4994660;28;20019;-74
2023/02/09 00:34:02;;;;;;;51.80;30.83;;;-3.80;70.10;;;;;;4977006;28;20035;-75
2023/02/09 00:36:28;;;;;;;53.53;30.65;;;-3.80;70.30;;;;;;4994545;28;20173;-74
2023/02/09 00:38:54;;;;;;;46.95;29.45;;;-3.70;70.30;;;;;;4994529;28;20054;-73
2023/02/09 00:42:04;;;;;;;46.90;29.35;;;-3.70;70.30;;;;;;4995248;28;20030;-73
2023/02/09 00:44:05;;;;;;;;;;;-3.60;70.00;;;;;;4994990;28;20106;-73
2023/02/09 00:46:30;;;;;;;50.13;30.30;;;-3.70;69.60;;;;;;4994379;28;20343;-74
2023/02/09 00:48:56;;;;;;;50.35;29.88;;;-3.70;69.10;;;;;;4994322;28;20057;-74
2023/02/09 00:51:21;;;;;;;51.53;31.15;;;-3.70;69.30;;;;;;4994286;28;20061;-74
2023/02/09 00:53:47;;;;;;;48.85;29.00;;;-3.70;69.50;;;;;;4976780;28;20064;-74
2023/02/09 00:56:12;;;;;;;47.58;29.90;;;-3.70;69.40;;;;;;4994218;28;20031;-75
2023/02/09 00:58:38;;;;;;;50.00;29.77;;;-3.60;69.20;;;;;;4993789;28;20026;-74
2023/02/09 01:01:03;;;;;;;52.03;29.50;;;-3.70;69.30;;;;;;4976591;28;20018;-75
2023/02/09 01:03:29;;;;;;;51.10;29.60;;;-3.60;69.60;;;;;;4993725;28;20027;-75
2023/02/09 01:05:58;;;;;;;54.60;30.58;;;-3.60;69.10;;;;;;4993817;28;20066;-75
2023/02/09 01:08:24;;;;;;;49.38;30.15;;;-3.60;68.90;;;;;;4993837;28;20018;-75
2023/02/09 01:10:49;;;;;;;48.47;29.98;;;-3.60;68.50;;;;;;4993841;28;20459;-75
2023/02/09 01:13:15;;;;;;;51.67;30.00;;;-3.70;68.10;;;;;;4993934;28;20041;-74
2023/02/09 01:15:40;;;;;;;51.38;31.02;;;-3.70;68.10;;;;;;4996936;28;20472;-75
2023/02/09 01:18:06;;;;;;;51.45;31.88;;;-3.80;68.30;;;;;;4976577;28;20150;-73
2023/02/09 01:20:33;;;;;;;52.90;30.88;;;-3.90;68.90;;;;;;4993635;28;20030;-73
2023/02/09 01:22:58;;;;;;;50.17;30.30;;;-4.00;69.30;;;;;;4993570;28;20427;-73
2023/02/09 01:25:24;;;;;;;50.17;31.70;;;-4.00;69.50;;;;;;4993738;28;20081;-73
2023/02/09 01:27:49;;;;;;;48.38;30.27;;;-4.00;69.90;;;;;;4993351;28;20050;-74
2023/02/09 01:30:15;;;;;;;58.00;33.55;;;-4.10;70.30;;;;;;4993642;28;20109;-75
2023/02/09 01:32:40;;;;;;;58.05;33.30;;;-4.20;70.00;;;;;;4993682;28;20050;-74
2023/02/09 01:35:07;;;;;;;55.45;32.67;;;-4.30;70.30;;;;;;4993214;28;20041;-74
2023/02/09 01:37:34;;;;;;;55.20;31.00;;;-4.40;70.80;;;;;;4993485;28;20076;-74
2023/02/09 01:39:59;;;;;;;49.90;30.70;;;-4.40;71.10;;;;;;4993459;28;20541;-75
2023/02/09 01:42:25;;;;;;;50.83;31.25;;;-4.40;71.30;;;;;;4993028;28;20034;-75
2023/02/09 01:45:27;;;;;;;55.65;33.78;;;-4.40;71.20;;;;;;4993319;28;20092;-75
2023/02/09 01:47:59;;;;;;;54.72;33.53;;;-4.40;71.40;;;;;;4993543;28;20034;-74
2023/02/09 01:50:26;;;;;;;59.75;34.53;;;-4.50;71.70;;;;;;4993471;28;20038;-75
2023/02/09 01:52:52;;;;;;;53.20;33.08;;;-4.50;72.00;;;;;;4975897;28;20034;-74
2023/02/09 01:55:23;;;;;;;57.17;32.30;;;-4.50;72.10;;;;;;4993373;28;20029;-75
2023/02/09 01:57:54;;;;;;;54.40;33.10;;;-4.40;71.80;;;;;;4976105;28;20510;-75
2023/02/09 02:00:20;;;;;;;54.53;32.38;;;-4.30;71.50;;;;;;4993344;28;20027;-74
2023/02/09 02:02:51;;;;;;;54.13;30.90;;;-4.30;71.50;;;;;;4993239;28;20085;-74
2023/02/09 02:05:18;;;;;;;56.85;32.95;;;-4.30;71.50;;;;;;4993300;28;20101;-74
2023/02/09 02:07:56;;;;;;;59.58;32.53;;;-4.40;71.50;;;;;;4993252;28;20023;-75
2023/02/09 02:10:23;;;;;;;52.95;31.88;;;-4.40;71.70;;;;;;4975713;28;20026;-75
2023/02/09 02:12:48;;;;;;;55.28;32.42;;;-4.40;71.70;;;;;;4993278;28;20069;-74
2023/02/09 02:15:14;;;;;;;56.38;33.58;;;-4.50;71.80;;;;;;4993255;28;20097;-74
2023/02/09 02:17:59;;;;;;;54.70;33.35;;;-4.40;71.70;;;;;;4993212;28;20030;-75
2023/02/09 02:20:36;;;;;;;54.85;34.38;;;-4.40;72.70;;;;;;4993102;28;20030;-74
2023/02/09 02:23:33;;;;;;;54.33;32.47;;;-4.50;71.90;;;;;;4993131;28;20031;-75
2023/02/09 02:26:28;;;;;;;53.08;32.13;;;-4.40;71.70;;;;;;4975591;28;20022;-75
2023/02/09 02:29:12;;;;;;;53.47;33.20;;;-4.40;71.50;;;;;;4995114;28;20564;-75
2023/02/09 02:31:43;;;;;;;54.30;33.22;;;-4.60;71.80;;;;;;4996942;28;20062;-76
2023/02/09 02:34:27;;;;;;;54.08;33.35;;;-4.50;72.30;;;;;;4996744;28;20034;-76
2023/02/09 02:36:54;;;;;;;56.53;33.47;;;-4.50;72.20;;;;;;4996804;28;20479;-74
2023/02/09 02:39:37;;;;;;;57.22;33.05;;;-4.50;72.20;;;;;;4996683;28;20030;-74
2023/02/09 02:45:09;;;;;;;60.88;34.60;;;-4.50;71.20;;;;;;4996566;28;20118;-74
2023/02/09 02:47:38;;;;;;;60.20;33.40;;;-4.60;71.30;;;;;;4996480;28;20365;-74
2023/02/09 02:50:13;;;;;;;58.03;34.47;;;-4.70;71.80;;;;;;4996497;28;20022;-74
2023/02/09 02:52:42;;;;;;;58.30;34.25;;;-4.70;71.80;;;;;;4996529;28;20030;-75
2023/02/09 02:55:12;;;;;;;60.40;35.05;;;-4.70;71.80;;;;;;4996343;28;20119;-75
2023/02/09 02:57:42;;;;;;;61.70;35.45;;;-4.70;72.00;;;;;;4996504;28;20426;-74
2023/02/09 03:00:24;;;;;;;57.45;34.13;;;-4.60;72.50;;;;;;4996402;28;20034;-75
2023/02/09 03:02:54;;;;;;;58.80;33.88;;;-4.50;72.10;;;;;;4996313;28;20030;-75
2023/02/09 03:05:22;;;;;;;55.20;33.15;;;-4.60;71.30;;;;;;4996278;28;20104;-75
2023/02/09 03:07:48;;;;;;;53.00;31.63;;;-4.60;70.90;;;;;;4996219;28;20031;-75
2023/02/09 03:10:33;;;;;;;62.83;35.95;;;-4.60;70.70;;;;;;4996188;28;20034;-76
2023/02/09 03:13:14;;;;;;;55.25;33.97;;;-4.60;70.90;;;;;;4996092;28;20026;-74
2023/02/09 03:15:43;;;;;;;57.05;35.70;;;-4.60;71.00;;;;;;4978739;28;20502;-74
2023/02/09 03:18:08;;;;;;;58.10;34.55;;;-4.60;70.90;;;;;;4978679;28;20117;-74
2023/02/09 03:20:47;;;;;;;61.75;36.00;;;-4.60;71.60;;;;;;4996049;28;20077;-74
2023/02/09 03:23:36;;;;;;;60.38;35.05;;;-4.60;71.50;;;;;;4978572;28;20034;-75
2023/02/09 03:26:18;;;;;;;57.95;34.25;;;-4.70;71.20;;;;;;4997224;28;20022;-75
2023/02/09 03:28:47;;;;;;;62.35;36.67;;;-4.80;71.50;;;;;;5007216;28;20050;-74
2023/02/09 03:31:13;;;;;;;58.47;35.33;;;-4.80;72.00;;;;;;4978313;28;20034;-75
2023/02/09 03:33:39;;;;;;;56.35;34.92;;;-4.90;73.00;;;;;;4978236;28;20030;-74
2023/02/09 03:36:13;;;;;;;57.90;34.95;;;-4.90;73.00;;;;;;4978061;28;20022;-74
2023/02/09 03:38:39;;;;;;;64.03;37.22;;;-4.80;73.30;;;;;;4977933;28;20037;-74
2023/02/09 03:41:05;;;;;;;56.83;35.47;;;-4.80;73.00;;;;;;4978214;28;20023;-75
2023/02/09 03:46:16;;;;;;;61.97;37.15;;;-4.70;73.40;;;;;;4965079;28;20030;-75
2023/02/09 03:48:42;;;;;;;61.45;36.40;;;-4.60;73.50;;;;;;4978393;28;20026;-73
2023/02/09 03:51:07;;;;;;;62.13;36.50;;;-4.70;73.10;;;;;;4978029;28;20023;-75
2023/02/09 03:53:37;;;;;;;60.22;35.58;;;-4.70;72.50;;;;;;4978007;28;20034;-73
2023/02/09 03:56:06;;;;;;;62.88;36.05;;;-4.70;72.30;;;;;;4977956;28;20438;-73
2023/02/09 03:58:32;;;;;;;60.15;36.75;;;-4.70;72.30;;;;;;4977929;28;20446;-74
2023/02/09 04:01:04;;;;;;;62.78;38.05;;;-4.60;72.60;;;;;;4977689;28;20065;-74
2023/02/09 04:03:30;;;;;;;63.35;38.90;;;-4.60;73.50;;;;;;4977977;28;20595;-74
2023/02/09 04:05:55;;;;;;;67.03;38.47;;;-4.50;73.90;;;;;;4995232;28;20030;-74
2023/02/09 04:08:21;;;;;;;67.85;39.30;;;-4.40;74.20;;;;;;4977658;28;20100;-74
2023/02/09 04:10:46;;;;;;;72.85;41.17;;;-4.40;74.90;;;;;;4980014;28;20030;-74
2023/02/09 04:13:12;;;;;;;69.47;39.58;;;-4.30;75.20;;;;;;4977580;28;20427;-74
2023/02/09 04:15:39;;;;;;;67.47;39.55;;;-4.20;75.10;;;;;;4977518;28;20033;-76
2023/02/09 04:18:05;;;;;;;71.32;41.10;;;-4.10;74.70;;;;;;4977639;28;20068;-75
2023/02/09 04:20:30;;;;;;;70.57;40.75;;;-4.20;74.50;;;;;;4977159;28;20026;-75
2023/02/09 04:22:56;;;;;;;73.68;43.33;;;-4.10;74.80;;;;;;4977323;28;20107;-74
2023/02/09 04:25:22;;;;;;;69.93;41.30;;;-4.10;74.70;;;;;;4977351;28;20093;-74
2023/02/09 04:27:47;;;;;;;71.43;41.10;;;-4.00;74.30;;;;;;4977354;28;20133;-75
2023/02/09 04:30:13;;;;;;;67.05;41.10;;;-4.00;74.00;;;;;;4977288;28;20387;-75
2023/02/09 04:32:39;;;;;;;68.50;41.03;;;-3.90;74.30;;;;;;4977305;28;20022;-75
2023/02/09 04:35:05;;;;;;;73.22;42.70;;;-3.90;74.40;;;;;;4977192;28;20034;-75
2023/02/09 04:37:31;;;;;;;76.00;43.60;;;-3.90;74.30;;;;;;4977164;28;20033;-75
2023/02/09 04:39:56;;;;;;;69.82;39.90;;;-3.80;74.10;;;;;;4977119;28;20026;-75
2023/02/09 04:42:23;;;;;;;70.88;42.10;;;-3.90;74.20;;;;;;4994400;28;20026;-74
2023/02/09 04:44:49;;;;;;;69.53;41.72;;;-3.90;74.40;;;;;;4977091;28;20073;-75
2023/02/09 04:47:14;;;;;;;72.25;43.13;;;-3.80;74.60;;;;;;4977143;28;20034;-74
2023/02/09 04:49:41;;;;;;;68.60;40.50;;;-3.80;74.40;;;;;;4976520;28;20069;-74
2023/02/09 04:52:07;;;;;;;71.45;41.38;;;-3.80;74.20;;;;;;4976179;28;20030;-74
2023/02/09 04:54:33;;;;;;;74.05;42.50;;;-3.80;74.00;;;;;;4976600;28;20412;-74
2023/02/09 04:59:43;;;;;;;72.90;43.05;;;-3.80;73.80;;;;;;4994319;28;20538;-74
2023/02/09 05:02:09;;;;;;;70.47;42.70;;;-3.90;74.20;;;;;;4976680;28;20026;-74
2023/02/09 05:04:35;;;;;;;72.80;42.20;;;-3.90;74.50;;;;;;4976613;28;20030;-74
2023/02/09 05:07:01;;;;;;;71.25;42.80;;;-3.80;74.40;;;;;;4976648;28;20113;-75
2023/02/09 05:09:26;;;;;;;75.00;42.88;;;-3.80;74.10;;;;;;4976600;28;20042;-74
2023/02/09 05:11:52;;;;;;;72.93;44.10;;;-3.80;74.10;;;;;;4976311;28;20022;-75
2023/02/09 05:14:18;;;;;;;76.07;43.85;;;-3.80;74.10;;;;;;4976432;28;20030;-74
2023/02/09 05:16:43;;;;;;;74.45;42.22;;;-3.70;74.00;;;;;;4976489;28;20033;-75
2023/02/09 05:19:09;;;;;;;70.75;42.08;;;-3.70;73.60;;;;;;4976538;28;20022;-74
2023/02/09 05:21:34;;;;;;;79.60;44.47;;;-3.70;73.40;;;;;;4976486;28;20161;-76
2023/02/09 05:24:00;;;;;;;72.72;43.70;;;-3.70;73.20;;;;;;4976079;28;20128;-75
2023/02/09 05:26:25;;;;;;;72.18;44.35;;;-3.80;73.20;;;;;;4976274;28;20030;-73
2023/02/09 05:28:51;;;;;;;76.03;45.13;;;-3.80;73.20;;;;;;4993643;28;20113;-73
2023/02/09 05:31:17;;;;;;;78.00;45.42;;;-4.00;73.00;;;;;;4976584;28;20463;-74
2023/02/09 05:33:43;;;;;;;75.40;45.55;;;-4.10;73.20;;;;;;4976301;28;20034;-74
2023/02/09 05:36:11;;;;;;;74.07;44.55;;;-4.20;73.50;;;;;;4976096;28;20440;-74
2023/02/09 05:38:37;;;;;;;71.55;41.40;;;-4.30;74.00;;;;;;4976734;28;20053;-75
2023/02/09 05:41:08;;;;;;;75.32;44.35;;;-4.30;74.00;;;;;;5000951;28;20086;-76
2023/02/09 05:43:35;;;;;;;74.50;43.00;;;-4.40;74.00;;;;;;4995945;28;20124;-74
2023/02/09 05:46:00;;;;;;;70.95;42.97;;;-4.30;73.90;;;;;;4995629;28;20113;-74
2023/02/09 05:48:26;;;;;;;74.45;43.28;;;-4.30;73.50;;;;;;4995472;28;20092;-73
2023/02/09 05:50:52;;;;;;;75.82;44.20;;;-4.40;73.40;;;;;;4995405;28;20022;-74
2023/02/09 05:53:17;;;;;;;76.97;43.80;;;-4.40;73.20;;;;;;4995457;28;20080;-74
2023/02/09 05:55:44;;;;;;;68.13;42.50;;;-4.50;73.20;;;;;;4995110;28;20452;-74
2023/02/09 05:58:10;;;;;;;77.25;42.95;;;-4.60;73.70;;;;;;4995369;28;20022;-74
2023/02/09 06:00:36;;;;;;;77.30;44.65;;;-4.70;74.50;;;;;;4995460;28;20049;-74
2023/02/09 06:03:01;;;;;;;78.40;43.35;;;-4.60;74.50;;;;;;4997832;28;20045;-74
2023/02/09 06:05:28;;;;;;;77.40;44.55;;;-4.60;74.20;;;;;;4999311;28;20068;-74
2023/02/09 06:07:55;;;;;;;74.18;43.22;;;-4.60;74.00;;;;;;4999107;28;20109;-73
2023/02/09 06:10:21;;;;;;;72.05;44.25;;;-4.60;73.50;;;;;;4998725;28;20471;-73
2023/02/09 06:12:46;;;;;;;73.53;43.83;;;-4.70;73.60;;;;;;4999251;28;20041;-74
2023/02/09 06:15:15;;;;;;;71.03;42.67;;;-4.70;73.70;;;;;;4999095;28;20474;-74
2023/02/09 06:17:41;;;;;;;74.38;43.15;;;-4.70;73.40;;;;;;4998944;28;20026;-74
2023/02/09 06:20:07;;;;;;;70.07;41.83;;;-4.70;73.00;;;;;;4998869;28;20072;-75
2023/02/09 06:22:32;;;;;;;76.15;41.97;;;-4.70;73.00;;;;;;5016404;28;20022;-75
2023/02/09 06:24:58;;;;;;;76.85;44.50;;;-4.80;73.20;;;;;;4999203;28;20030;-74
2023/02/09 06:27:23;;;;;;;76.22;44.90;;;-4.80;73.50;;;;;;5016273;28;20092;-75
2023/02/09 06:29:49;;;;;;;75.85;44.45;;;-4.80;73.40;;;;;;4998201;28;20038;-75
2023/02/09 06:32:15;;;;;;;76.95;43.38;;;-4.90;73.80;;;;;;5015882;28;20538;-74
2023/02/09 06:34:40;;;;;;;79.43;44.33;;;-4.90;73.80;;;;;;4998612;28;20087;-75
2023/02/09 06:37:06;;;;;;;77.18;43.50;;;-5.00;74.00;;;;;;4998271;28;20048;-74
2023/02/09 06:39:31;;;;;;;78.78;44.70;;;-5.00;73.80;;;;;;4998583;28;20041;-74
2023/02/09 06:41:57;;;;;;;80.10;44.25;;;-5.10;73.80;;;;;;4999011;28;20022;-77
2023/02/09 06:44:22;;;;;;;84.90;45.83;;;-5.10;74.00;;;;;;4998717;28;20497;-75
2023/02/09 06:46:48;;;;;;;75.25;43.33;;;-5.10;74.30;;;;;;4998171;28;20037;-74
2023/02/09 06:49:13;;;;;;;74.22;45.15;;;-5.10;74.30;;;;;;4997897;28;20088;-74
2023/02/09 06:51:39;;;;;;;83.05;45.55;;;-5.10;74.50;;;;;;4997823;28;20058;-74
2023/02/09 06:54:05;;;;;;;82.38;45.53;;;-5.00;74.80;;;;;;4998275;28;20104;-74
2023/02/09 06:56:30;;;;;;;77.10;44.72;;;-4.90;74.90;;;;;;4998479;28;20046;-76
2023/02/09 06:58:56;;;;;;;81.93;45.42;;;-4.90;74.00;;;;;;5015638;28;20026;-74
2023/02/09 07:01:21;;;;;;;76.88;44.00;;;-5.00;73.80;;;;;;4998469;28;20501;-75
2023/02/09 07:03:47;;;;;;;80.35;45.53;;;-4.90;74.00;;;;;;4998204;28;20025;-74
2023/02/09 07:06:16;;;;;;;77.15;45.25;;;-4.90;74.10;;;;;;4998066;28;20026;-75
2023/02/09 07:08:42;;;;;;;78.53;43.47;;;-4.80;73.90;;;;;;4998267;28;20022;-75
2023/02/09 07:11:11;;;;;;;80.45;45.13;;;-4.70;74.10;;;;;;4998121;28;20398;-76
2023/02/09 07:13:37;;;;;;;76.28;45.13;;;-4.70;73.40;;;;;;4996842;28;20030;-74
2023/02/09 07:16:05;;;;;;;80.82;45.72;;;-4.70;73.20;;;;;;5015602;28;20030;-75
2023/02/09 07:18:31;;;;;;;77.35;44.15;;;-4.70;73.00;;;;;;5015370;28;20037;-77
2023/02/09 07:21:00;;;;;;;74.75;42.83;;;-4.60;72.80;;;;;;4997579;28;20030;-75
2023/02/09 07:23:26;;;;;;;81.80;46.20;;;-4.50;72.40;;;;;;4997945;28;20143;-74
2023/02/09 07:25:52;;;;;;;76.93;43.63;;;-4.60;71.70;;;;;;4998042;28;20018;-75
2023/02/09 07:28:19;;;;;;;78.93;43.85;;;-4.60;71.30;;;;;;4997664;28;20128;-75
2023/02/09 07:30:47;;;;;;;82.30;45.88;;;-4.50;71.40;;;;;;4997712;28;20022;-74
2023/02/09 07:33:12;;;;;;;84.85;45.65;;;-4.60;71.00;;;;;;5014937;28;20387;-74
2023/02/09 07:35:39;;;;;;;77.15;43.40;;;-4.60;71.40;;;;;;5015324;28;20090;-74
2023/02/09 07:38:05;;;;;;;73.80;43.92;;;-4.50;71.40;;;;;;4997516;28;20383;-74
2023/02/09 07:40:30;;;;;;;79.47;44.58;;;-4.50;71.60;;;;;;5015187;28;20033;-74
2023/02/09 07:42:56;;;;;;;81.15;45.78;;;-4.50;71.20;;;;;;5015125;28;20037;-74
2023/02/09 07:45:21;;;;;;;81.50;45.50;;;-4.40;70.90;;;;;;5015144;28;20026;-76
2023/02/09 07:47:47;;;;;;;85.63;46.80;;;-4.50;70.90;;;;;;5015214;28;20037;-73
2023/02/09 07:50:13;;;;;;;78.00;44.67;;;-4.40;70.80;;;;;;5014956;28;20026;-74
2023/02/09 07:52:38;;;;;;;77.78;44.50;;;-4.40;70.90;;;;;;4997771;28;20026;-75
2023/02/09 07:55:04;;;;;;;78.05;43.38;;;-4.30;70.90;;;;;;4988308;28;20410;-74
2023/02/09 07:57:31;;;;;;;75.22;42.70;;;-4.30;71.10;;;;;;4977885;28;20022;-74
2023/02/09 07:59:57;;;;;;;73.68;41.83;;;-4.10;70.70;;;;;;4977473;28;20030;-75
2023/02/09 08:02:32;;;;;;;74.40;43.15;;;-4.00;70.10;;;;;;4995074;28;20030;-74
2023/02/09 08:04:59;;;;;;;81.28;46.33;;;-3.90;69.40;;;;;;4995217;28;20029;-74
2023/02/09 08:07:26;;;;;;;71.38;43.08;;;-3.70;69.10;;;;;;4995236;28;20041;-76
2023/02/09 08:09:52;;;;;;;72.80;44.40;;;-3.70;69.00;;;;;;4995055;28;20022;-74
2023/02/09 08:12:19;;;;;;;67.85;41.42;;;-3.50;68.90;;;;;;4994978;28;20080;-74
2023/02/09 08:15:05;;;;;;;71.93;41.60;;;-3.50;68.60;;;;;;4994599;28;20061;-76
2023/02/09 08:17:31;;;;;;;70.05;41.30;;;-3.20;67.80;;;;;;4994781;28;20117;-73
2023/02/09 08:20:03;;;;;;;72.28;42.55;;;-3.10;67.20;;;;;;4994903;28;20522;-73
2023/02/09 08:22:33;;;;;;;72.78;42.67;;;-3.00;66.40;;;;;;4994785;28;20483;-74
2023/02/09 08:25:01;;;;;;;74.35;42.75;;;-2.90;66.10;;;;;;4994340;28;20029;-75
2023/02/09 08:27:28;;;;;;;70.38;42.33;;;-2.80;66.10;;;;;;4993787;28;20046;-74
2023/02/09 08:29:53;;;;;;;79.68;45.78;;;-2.70;65.80;;;;;;4994432;28;20030;-74
2023/02/09 08:32:19;;;;;;;73.55;44.80;;;-2.60;65.30;;;;;;4994446;28;20027;-72
2023/02/09 08:34:45;;;;;;;79.53;45.80;;;-2.20;77.90;;;;;;4994497;28;20124;-74
2023/02/09 08:37:10;;;;;;;73.18;42.67;;;-1.50;81.40;;;;;;4994534;28;20022;-74
2023/02/09 08:39:36;;;;;;;75.13;41.40;;;-1.00;78.70;;;;;;4994637;28;20088;-73
2023/02/09 08:42:01;;;;;;;68.78;41.60;;;-0.50;77.10;;;;;;4994064;28;20030;-73
2023/02/09 08:44:27;;;;;;;71.63;39.00;;;-0.10;69.70;;;;;;4994548;28;20031;-72
2023/02/09 08:46:52;;;;;;;69.10;39.15;;;0.20;67.40;;;;;;4994374;28;20030;-72
2023/02/09 08:49:18;;;;;;;65.93;38.47;;;0.40;63.10;;;;;;4994266;28;20026;-70
2023/02/09 08:51:43;;;;;;;63.90;36.75;;;0.50;60.90;;;;;;4994210;28;20027;-72
2023/02/09 08:54:09;;;;;;;63.58;36.80;;;0.60;60.30;;;;;;4994083;28;20543;-75
2023/02/09 08:56:35;;;;;;;61.58;34.50;;;0.90;61.60;;;;;;4976709;28;20030;-74
2023/02/09 08:59:00;;;;;;;60.47;34.63;;;1.20;58.60;;;;;;4994279;28;20054;-73
2023/02/09 09:01:26;;;;;;;59.05;34.15;;;1.50;60.10;;;;;;4994024;28;20030;-74
2023/02/09 09:03:51;;;;;;;58.63;29.60;;;1.90;57.60;;;;;;4994042;28;20037;-75
2023/02/09 09:06:17;;;;;;;55.17;28.73;;;2.20;56.80;;;;;;4994007;28;20057;-74
2023/02/09 09:08:42;;;;;;;55.22;29.52;;;2.40;55.20;;;;;;4976740;28;20014;-74
2023/02/09 09:11:11;;;;;;;50.53;28.50;;;2.70;52.80;;;;;;4976459;28;20022;-73
2023/02/09 09:13:40;;;;;;;52.08;28.25;;;3.00;53.00;;;;;;4976210;28;20030;-73
2023/02/09 09:16:11;;;;;;;54.28;28.25;;;3.40;52.50;;;;;;4993972;28;20448;-73
2023/02/09 09:18:37;;;;;;;60.95;29.08;;;3.80;52.00;;;;;;4976062;28;20030;-73
2023/02/09 09:21:03;;;;;;;52.03;28.63;;;4.00;49.80;;;;;;4993696;28;20049;-74
2023/02/09 09:23:28;;;;;;;55.63;28.98;;;4.10;48.80;;;;;;4993556;28;20080;-73
2023/02/09 09:26:00;;;;;;;48.85;28.63;;;4.10;47.10;;;;;;4993570;28;20026;-74
2023/02/09 09:28:25;;;;;;;59.53;28.58;;;4.10;48.10;;;;;;4975956;28;20049;-78
2023/02/09 09:30:51;;;;;;;57.47;30.00;;;3.80;46.60;;;;;;4975923;28;20014;-75
2023/02/09 09:33:18;;;;;;;51.50;28.35;;;3.70;46.80;;;;;;4993800;28;20129;-75
2023/02/09 09:35:43;;;;;;;54.78;29.58;;;3.50;48.10;;;;;;4993558;28;20129;-74
2023/02/09 09:38:09;;;;;;;59.90;28.83;;;3.30;48.30;;;;;;4992773;28;20018;-76
2023/02/09 09:40:39;;;;;;;59.45;30.83;;;3.00;49.10;;;;;;4993438;28;20394;-74
2023/02/09 09:43:38;;;;;;;55.67;30.42;;;3.10;50.30;;;;;;4993381;28;20032;-74
2023/02/09 09:46:05;;;;;;;55.03;30.52;;;3.20;50.10;;;;;;4971030;28;20130;-73
2023/02/09 09:48:44;;;;;;;54.60;29.13;;;3.40;50.60;;;;;;4993241;28;20026;-78
2023/02/09 09:51:17;;;;;;;60.45;29.02;;;3.40;50.40;;;;;;4993177;28;20088;-77
2023/02/09 09:53:44;;;;;;;52.97;27.60;;;3.40;50.40;;;;;;4993263;28;20030;-74
2023/02/09 09:56:12;;;;;;;52.90;27.55;;;3.60;50.50;;;;;;4993353;28;20113;-77
2023/02/09 09:58:42;;;;;;;52.05;27.88;;;3.90;49.70;;;;;;4993243;28;20022;-74
2023/02/09 10:01:17;;;;;;;49.90;27.42;;;4.20;49.10;;;;;;4975648;28;20038;-73
2023/02/09 10:03:42;;;;;;;56.58;29.85;;;4.50;48.90;;;;;;4975999;28;20045;-77
2023/02/09 10:06:20;;;;;;;56.78;29.27;;;4.80;47.60;;;;;;4993068;28;20030;-74
2023/02/09 10:08:54;;;;;;;56.58;29.65;;;5.00;46.80;;;;;;4993380;28;20022;-77
2023/02/09 10:11:31;;;;;;;53.65;27.63;;;5.20;45.90;;;;;;4993390;28;20090;-76
2023/02/09 10:13:57;;;;;;;48.65;27.88;;;5.40;45.70;;;;;;4993162;28;20053;-73
2023/02/09 10:16:26;;;;;;;49.08;26.15;;;5.70;44.90;;;;;;4993268;28;20030;-74
2023/02/09 10:18:57;;;;;;;47.08;26.90;;;5.90;44.20;;;;;;4993182;28;20029;-73
2023/02/09 10:21:26;;;;;;;48.40;26.67;;;6.20;43.70;;;;;;4993155;28;20097;-74
2023/02/09 10:24:01;;;;;;;48.15;27.40;;;6.40;43.10;;;;;;4992867;28;20033;-76
2023/02/09 10:26:32;;;;;;;37.42;21.27;;;6.60;42.80;;;;;;4993084;28;20063;-75
2023/02/09 10:29:06;;;;;;;46.75;26.80;;;6.70;41.10;;;;;;4975469;28;20046;-73
2023/02/09 10:31:37;;;;;;;45.22;26.02;;;6.80;40.80;;;;;;4992987;28;20391;-75
2023/02/09 10:34:15;;;;;;;47.10;24.75;;;7.00;40.50;;;;;;4992448;28;20157;-77
2023/02/09 10:37:04;;;;;;;50.80;28.15;;;7.20;39.80;;;;;;4992534;28;20081;-75
2023/02/09 10:39:33;;;;;;;54.03;27.13;;;7.30;39.50;;;;;;4974758;28;20056;-74
2023/02/09 10:42:34;;;;;;;45.08;25.20;;;7.50;39.70;;;;;;4992398;28;20046;-76
2023/02/09 10:45:08;;;;;;;45.35;25.13;;;7.70;38.80;;;;;;4970829;28;20045;-76
2023/02/09 10:47:33;;;;;;;44.55;24.92;;;7.90;38.20;;;;;;4992677;28;20048;-74
2023/02/09 10:50:00;;;;;;;44.72;23.25;;;8.00;38.20;;;;;;4994885;28;20033;-74
2023/02/09 10:52:32;;;;;;;48.22;24.00;;;7.90;37.60;;;;;;4978850;28;20387;-75
2023/02/09 10:55:03;;;;;;;36.55;21.45;;;7.90;37.50;;;;;;4978684;28;20525;-78
2023/02/09 10:57:38;;;;;;;38.95;21.40;;;7.90;38.70;;;;;;4998214;28;20054;-74
2023/02/09 11:00:16;;;;;;;39.33;20.70;;;8.10;37.90;;;;;;4996904;28;20053;-78
2023/02/09 11:02:53;;;;;;;36.30;20.50;;;8.30;37.70;;;;;;4978583;28;20031;-75
2023/02/09 11:05:19;;;;;;;36.67;20.42;;;8.50;36.80;;;;;;4995655;28;20057;-75
2023/02/09 11:07:49;;;;;;;38.15;20.70;;;8.60;36.90;;;;;;4995759;28;20014;-75
2023/02/09 11:10:15;;;;;;;35.05;19.95;;;8.70;36.80;;;;;;4995722;28;20490;-76
2023/02/09 11:12:42;;;;;;;38.85;20.15;;;9.00;36.30;;;;;;4995743;28;20111;-75
2023/02/09 11:15:13;;;;;;;44.38;22.42;;;8.90;35.10;;;;;;4978419;28;20092;-74
2023/02/09 11:17:53;;;;;;;37.55;18.83;;;8.80;34.90;;;;;;4978386;28;20042;-76
2023/02/09 11:20:39;;;;;;;34.20;18.73;;;8.80;35.70;;;;;;4978282;28;20022;-76
2023/02/09 11:23:28;;;;;;;34.53;16.70;;;8.20;34.80;;;;;;4978375;28;20471;-74
2023/02/09 11:26:19;;;;;;;31.13;15.07;;;8.40;35.40;;;;;;4995913;28;20034;-76
2023/02/09 11:28:54;;;;;;;26.08;14.10;;;8.70;34.70;;;;;;4995490;28;20450;-74
2023/02/09 11:31:35;;;;;;;30.10;16.15;;;8.50;34.30;;;;;;4995654;28;20034;-73
2023/02/09 11:34:19;;;;;;;27.85;15.93;;;8.70;34.00;;;;;;4995540;28;20059;-74
2023/02/09 11:37:26;;;;;;;26.23;14.60;;;8.90;34.30;;;;;;4995907;28;20023;-78
2023/02/09 11:40:04;;;;;;;28.23;16.10;;;9.30;33.50;;;;;;4954924;29;20042;-78
2023/02/09 11:42:44;;;;;;;28.88;16.35;;;9.70;32.50;;;;;;4938651;29;20038;-74
2023/02/09 11:45:32;;;;;;;32.63;16.30;;;9.80;31.50;;;;;;4964794;28;20062;-74
2023/02/09 11:48:10;;;;;;;29.08;16.25;;;9.70;31.80;;;;;;4978146;28;20485;-76
2023/02/09 11:50:41;;;;;;;27.00;15.32;;;9.50;31.60;;;;;;4995065;28;20041;-77
2023/02/09 11:53:21;;;;;;;33.63;16.77;;;9.60;32.00;;;;;;4994861;28;20035;-73
2023/02/09 11:56:09;;;;;;;29.83;15.35;;;9.50;31.50;;;;;;4994891;28;20438;-74
2023/02/09 11:58:38;;;;;;;29.95;15.40;;;9.70;31.90;;;;;;4977260;28;20077;-75
2023/02/09 12:01:26;;;;;;;33.85;16.95;;;9.40;32.10;;;;;;4994813;28;20054;-75
2023/02/09 12:03:55;;;;;;;29.70;16.35;;;9.60;32.40;;;;;;4977648;28;20023;-76
2023/02/09 12:06:22;;;;;;;29.15;17.00;;;9.40;32.50;;;;;;4994791;28;20031;-74
2023/02/09 12:08:58;;;;;;;29.17;17.05;;;9.50;32.00;;;;;;4995052;28;20022;-74
2023/02/09 12:11:40;;;;;;;30.60;17.80;;;9.50;32.30;;;;;;4977869;28;20080;-74
2023/02/09 12:14:34;;;;;;;34.70;17.75;;;9.80;32.00;;;;;;4977411;28;20034;-73
2023/02/09 12:17:12;;;;;;;31.38;17.40;;;10.20;32.40;;;;;;4994756;28;20106;-77
2023/02/09 12:19:42;;;;;;;26.05;15.80;;;10.30;31.30;;;;;;4977021;28;20129;-74
2023/02/09 12:22:32;;;;;;;29.85;16.50;;;10.80;31.00;;;;;;4994660;28;20038;-74
2023/02/09 12:25:04;;;;;;;34.63;18.58;;;10.20;31.50;;;;;;4994672;28;20034;-74
2023/02/09 12:27:30;;;;;;;32.40;18.90;;;10.20;31.40;;;;;;4994542;28;20040;-77
2023/02/09 12:29:56;;;;;;;39.95;21.52;;;10.40;31.60;;;;;;4977282;28;20061;-76
2023/02/09 12:32:39;;;;;;;34.33;20.20;;;10.40;31.20;;;;;;4976760;28;20034;-81
2023/02/09 12:35:47;;;;;;;31.58;16.58;;;9.80;32.10;;;;;;4977054;28;20390;-80
2023/02/09 12:38:20;;;;;;;29.30;15.80;;;9.80;32.30;;;;;;4928664;28;20026;-80
2023/02/09 12:41:02;;;;;;;25.88;15.23;;;10.20;32.10;;;;;;4976978;28;20023;-79
2023/02/09 12:43:30;;;;;;;25.42;15.13;;;10.30;31.50;;;;;;4977352;28;20488;-83
2023/02/09 12:46:11;;;;;;;29.73;17.00;;;10.50;31.30;;;;;;4976722;28;20486;-76
2023/02/09 12:48:50;;;;;;;27.05;16.23;;;10.70;30.90;;;;;;4976889;28;20114;-76
2023/02/09 12:51:38;;;;;;;28.63;16.75;;;11.10;30.30;;;;;;4976812;28;20034;-78
2023/02/09 12:54:25;;;;;;;26.42;16.08;;;11.30;29.00;;;;;;4976467;28;20125;-77
2023/02/09 12:56:51;;;;;;;28.92;17.25;;;11.70;28.40;;;;;;4994503;28;20495;-79